Time;durP1;ratioP1;P1;durP2;ratioP2;P2;SDS_P1;SDS_P2;PMS_P1;PMS_P2;Temp;Humidity;BMP_temperature;BMP_pressure;BME280_temperature;BME280_humidity;BME280_pressure;Samples;Min_cycle;Max_cycle;Signal;HPM_P1;HPM_P2
2024/01/17 00:02:04;;;;;;;15.60;7.38;;;-6.80;99.90;;;;;;4956563;28;20077;-89
2024/01/17 00:04:30;;;;;;;16.17;7.43;;;-6.90;99.90;;;;;;4957658;28;20042;-90
2024/01/17 00:06:57;;;;;;;15.55;7.53;;;-6.90;99.90;;;;;;4942720;29;20031;-89
2024/01/17 00:09:23;;;;;;;15.93;7.60;;;-6.90;99.90;;;;;;4922303;29;20027;-89
2024/01/17 00:11:50;;;;;;;15.07;7.97;;;-6.90;99.90;;;;;;4931757;29;20066;-89
2024/01/17 00:14:16;;;;;;;15.35;7.90;;;-7.00;99.90;;;;;;4941307;28;20054;-90
2024/01/17 00:16:43;;;;;;;17.33;7.35;;;-7.00;99.90;;;;;;4947696;28;20026;-89
2024/01/17 00:19:08;;;;;;;15.55;8.10;;;-7.00;99.90;;;;;;4933971;29;20051;-89
2024/01/17 00:21:34;;;;;;;17.77;8.82;;;-7.00;99.90;;;;;;4938206;29;20039;-89
2024/01/17 00:24:00;;;;;;;15.18;8.00;;;-6.90;99.90;;;;;;4953952;28;20558;-89
2024/01/17 00:26:26;;;;;;;16.88;8.57;;;-6.90;99.90;;;;;;4940161;29;20043;-89
2024/01/17 00:28:52;;;;;;;13.27;8.15;;;-6.90;99.90;;;;;;4950591;28;20089;-89
2024/01/17 00:31:18;;;;;;;15.85;7.80;;;-7.00;99.90;;;;;;4921707;29;20043;-90
2024/01/17 00:33:43;;;;;;;16.30;8.05;;;-6.90;99.90;;;;;;4937877;29;20118;-89
2024/01/17 00:36:10;;;;;;;18.00;8.57;;;-7.00;99.90;;;;;;4953626;28;20652;-89
2024/01/17 00:38:36;;;;;;;15.35;7.40;;;-7.00;99.90;;;;;;4938446;29;20023;-89
2024/01/17 00:41:05;;;;;;;15.63;7.80;;;-7.00;99.90;;;;;;4937687;29;20031;-90
2024/01/17 00:43:32;;;;;;;15.70;7.78;;;-7.00;99.90;;;;;;4951477;28;20130;-89
2024/01/17 00:45:58;;;;;;;15.65;7.85;;;-7.00;99.90;;;;;;4928431;29;20431;-89
2024/01/17 00:48:24;;;;;;;15.63;7.35;;;-7.00;99.90;;;;;;4938258;29;20042;-89
2024/01/17 00:50:50;;;;;;;14.32;8.23;;;-7.00;99.90;;;;;;4953816;28;20031;-89
2024/01/17 00:53:16;;;;;;;14.15;7.60;;;-7.00;99.90;;;;;;4947931;29;20152;-89
2024/01/17 00:55:41;;;;;;;14.63;7.40;;;-7.00;99.90;;;;;;4922416;28;20035;-89
2024/01/17 00:58:10;;;;;;;16.67;8.93;;;-7.00;99.90;;;;;;4937343;29;20038;-90
2024/01/17 01:00:35;;;;;;;14.13;7.38;;;-7.10;99.90;;;;;;4948754;28;20031;-90
2024/01/17 01:03:01;;;;;;;14.32;7.43;;;-7.10;99.90;;;;;;4950979;29;20451;-89
2024/01/17 01:05:27;;;;;;;14.45;8.07;;;-7.20;99.90;;;;;;4954424;28;20074;-90
2024/01/17 01:07:53;;;;;;;14.27;8.02;;;-7.20;99.90;;;;;;4922328;29;20067;-90
2024/01/17 01:10:19;;;;;;;19.75;8.65;;;-7.20;99.90;;;;;;4941828;29;20392;-90
2024/01/17 01:12:45;;;;;;;17.50;9.07;;;-7.30;99.90;;;;;;4940934;29;20129;-89
2024/01/17 01:15:11;;;;;;;19.42;9.25;;;-7.30;99.90;;;;;;4940849;29;20045;-89
2024/01/17 01:17:37;;;;;;;16.08;9.18;;;-7.30;99.90;;;;;;4956551;28;20031;-89
2024/01/17 01:20:03;;;;;;;17.50;8.90;;;-7.30;99.90;;;;;;4946046;29;20023;-89
2024/01/17 01:22:29;;;;;;;20.52;9.20;;;-7.30;99.90;;;;;;4926658;29;20027;-89
2024/01/17 01:24:55;;;;;;;18.58;9.43;;;-7.20;99.90;;;;;;4924760;29;20542;-90
2024/01/17 01:27:20;;;;;;;16.30;8.93;;;-7.20;99.90;;;;;;4924702;29;20078;-89
2024/01/17 01:29:46;;;;;;;16.13;9.40;;;-7.20;99.90;;;;;;4938696;29;20404;-90
2024/01/17 01:32:12;;;;;;;25.27;9.27;;;-7.20;99.90;;;;;;4924708;29;20046;-90
2024/01/17 01:34:38;;;;;;;17.70;9.15;;;-7.10;99.90;;;;;;4931990;29;20098;-90
2024/01/17 01:37:04;;;;;;;18.10;9.15;;;-7.20;99.90;;;;;;4940710;29;20047;-90
2024/01/17 01:39:30;;;;;;;18.75;9.45;;;-7.20;99.90;;;;;;4933806;29;20067;-91
2024/01/17 01:41:56;;;;;;;22.38;9.38;;;-7.20;99.90;;;;;;4941322;29;20260;-90
2024/01/17 01:44:22;;;;;;;20.13;9.68;;;-7.20;99.90;;;;;;4941385;29;20530;-90
2024/01/17 01:46:48;;;;;;;17.90;9.30;;;-7.20;99.90;;;;;;4925421;29;20106;-89
2024/01/17 01:49:15;;;;;;;17.15;9.13;;;-7.30;99.90;;;;;;4941080;29;20035;-89
2024/01/17 01:51:44;;;;;;;18.63;9.45;;;-7.30;99.90;;;;;;4925297;29;20035;-89
2024/01/17 01:54:13;;;;;;;19.35;8.98;;;-7.30;99.90;;;;;;4940569;29;20031;-89
2024/01/17 01:56:40;;;;;;;20.52;9.25;;;-7.30;99.90;;;;;;4940112;29;20031;-89
2024/01/17 01:59:10;;;;;;;18.70;9.77;;;-7.30;99.90;;;;;;4941039;28;20043;-89
2024/01/17 02:01:37;;;;;;;17.77;9.57;;;-7.40;99.90;;;;;;4941109;29;20043;-89
2024/01/17 02:04:04;;;;;;;20.55;10.05;;;-7.40;99.90;;;;;;4924444;29;20031;-89
2024/01/17 02:06:33;;;;;;;19.75;9.45;;;-7.40;99.90;;;;;;4932709;29;20046;-89
2024/01/17 02:09:00;;;;;;;19.52;9.93;;;-7.40;99.90;;;;;;4924947;29;20070;-89
2024/01/17 02:11:30;;;;;;;15.95;9.40;;;-7.40;99.90;;;;;;4924132;29;20027;-89
2024/01/17 02:13:57;;;;;;;18.77;9.45;;;-7.50;99.90;;;;;;4946198;29;20400;-89
2024/01/17 02:16:26;;;;;;;18.58;10.90;;;-7.40;99.90;;;;;;4924329;29;20031;-90
2024/01/17 02:18:52;;;;;;;19.80;10.23;;;-7.40;99.90;;;;;;4929119;28;20035;-89
2024/01/17 02:21:22;;;;;;;17.17;10.00;;;-7.40;99.90;;;;;;4944451;29;20027;-90
2024/01/17 02:23:52;;;;;;;24.00;10.48;;;-7.30;99.90;;;;;;4940178;29;20114;-90
2024/01/17 02:26:18;;;;;;;17.80;10.27;;;-7.30;99.90;;;;;;4956578;28;20492;-89
2024/01/17 02:28:44;;;;;;;17.02;10.18;;;-7.30;99.90;;;;;;4939911;29;20062;-90
2024/01/17 02:31:11;;;;;;;21.27;10.65;;;-7.20;99.90;;;;;;4934577;29;20411;-89
2024/01/17 02:33:38;;;;;;;19.88;11.18;;;-7.10;99.90;;;;;;4941091;29;20047;-90
2024/01/17 02:36:04;;;;;;;18.75;10.38;;;-7.10;99.90;;;;;;4939838;29;20066;-91
2024/01/17 02:38:30;;;;;;;16.65;10.07;;;-7.10;99.90;;;;;;4939448;29;20440;-90
2024/01/17 02:40:56;;;;;;;17.58;10.38;;;-7.10;99.90;;;;;;4940405;29;20091;-90
2024/01/17 02:43:21;;;;;;;16.42;10.35;;;-7.10;99.90;;;;;;4923511;29;20035;-90
2024/01/17 02:45:47;;;;;;;23.50;10.80;;;-7.10;99.90;;;;;;4923308;29;20086;-91
2024/01/17 02:48:13;;;;;;;17.85;9.93;;;-7.10;99.90;;;;;;4943396;28;20499;-90
2024/01/17 02:50:39;;;;;;;18.23;9.32;;;-7.10;99.90;;;;;;4954206;29;20043;-89
2024/01/17 02:53:06;;;;;;;21.08;9.88;;;-7.10;99.90;;;;;;4954709;29;20082;-90
2024/01/17 02:55:32;;;;;;;20.35;10.45;;;-7.10;99.90;;;;;;4933937;29;20074;-91
2024/01/17 02:58:00;;;;;;;20.33;10.23;;;-7.20;99.90;;;;;;4939208;29;20031;-90
2024/01/17 03:00:26;;;;;;;17.85;10.38;;;-7.20;99.90;;;;;;4940445;29;20108;-90
2024/01/17 03:02:52;;;;;;;19.95;9.63;;;-7.20;99.90;;;;;;4940438;29;20047;-90
2024/01/17 03:05:18;;;;;;;19.15;9.95;;;-7.20;99.90;;;;;;4940476;29;20042;-89
2024/01/17 03:07:44;;;;;;;18.58;9.75;;;-7.20;99.90;;;;;;4945120;28;20031;-89
2024/01/17 03:10:12;;;;;;;20.05;10.85;;;-7.20;99.90;;;;;;4934703;29;20664;-89
2024/01/17 03:12:39;;;;;;;19.83;10.40;;;-7.30;99.90;;;;;;4924679;29;20122;-89
2024/01/17 03:15:06;;;;;;;20.50;10.60;;;-7.20;99.90;;;;;;4940095;29;20031;-89
2024/01/17 03:17:34;;;;;;;22.75;10.80;;;-7.30;99.90;;;;;;4939817;28;20127;-89
2024/01/17 03:20:00;;;;;;;20.77;10.82;;;-7.30;99.90;;;;;;4939914;29;20373;-90
2024/01/17 03:22:26;;;;;;;21.75;10.82;;;-7.30;99.90;;;;;;4940326;29;20098;-90
2024/01/17 03:24:52;;;;;;;20.50;10.85;;;-7.20;99.90;;;;;;4952515;28;20041;-90
2024/01/17 03:27:18;;;;;;;23.17;11.60;;;-7.20;99.90;;;;;;4959317;28;20035;-89
2024/01/17 03:29:43;;;;;;;20.15;11.00;;;-7.10;99.90;;;;;;4958510;28;20035;-89
2024/01/17 03:32:09;;;;;;;20.05;11.35;;;-7.10;99.90;;;;;;4974978;28;20051;-90
2024/01/17 03:34:35;;;;;;;26.88;12.25;;;-7.10;99.90;;;;;;4958736;28;20027;-89
2024/01/17 03:37:01;;;;;;;21.17;11.60;;;-7.10;99.90;;;;;;4943125;28;20468;-89
2024/01/17 03:39:27;;;;;;;22.73;10.65;;;-7.00;99.90;;;;;;4937942;29;20027;-90
2024/01/17 03:41:53;;;;;;;21.23;11.52;;;-7.00;99.90;;;;;;4939402;29;20035;-89
2024/01/17 03:44:22;;;;;;;21.70;11.60;;;-6.90;99.90;;;;;;4947313;28;20058;-89
2024/01/17 03:46:47;;;;;;;23.50;12.30;;;-6.90;99.90;;;;;;4958429;28;20026;-89
2024/01/17 03:49:13;;;;;;;24.00;11.85;;;-6.80;99.90;;;;;;4957898;28;20030;-89
2024/01/17 03:51:39;;;;;;;21.52;11.25;;;-6.80;99.90;;;;;;4946288;28;20122;-90
2024/01/17 03:54:06;;;;;;;23.48;12.73;;;-6.80;99.90;;;;;;4922756;29;20514;-89
2024/01/17 03:56:31;;;;;;;21.08;11.95;;;-6.80;99.90;;;;;;4938333;29;20082;-89
2024/01/17 03:58:57;;;;;;;20.83;11.48;;;-6.90;99.90;;;;;;4943470;28;20443;-88
2024/01/17 04:01:23;;;;;;;24.08;11.90;;;-6.90;99.90;;;;;;4941962;28;20023;-88
2024/01/17 04:03:50;;;;;;;24.80;11.80;;;-6.90;99.90;;;;;;4923412;29;20557;-88
2024/01/17 04:06:17;;;;;;;23.25;11.30;;;-6.90;99.90;;;;;;4939145;29;20443;-89
2024/01/17 04:08:44;;;;;;;25.35;11.48;;;-6.90;99.90;;;;;;4955508;28;20042;-88
2024/01/17 04:11:16;;;;;;;21.92;10.80;;;-6.90;99.90;;;;;;4926751;29;20038;-89
2024/01/17 04:13:44;;;;;;;22.27;11.65;;;-6.80;99.90;;;;;;4923591;29;20118;-89
2024/01/17 04:16:11;;;;;;;19.52;11.45;;;-6.80;99.90;;;;;;4950231;29;20071;-89
2024/01/17 04:18:37;;;;;;;26.42;12.15;;;-6.80;99.90;;;;;;4938101;29;20026;-89
2024/01/17 04:21:03;;;;;;;23.20;12.05;;;-6.80;99.90;;;;;;4939018;29;20040;-90
2024/01/17 04:23:29;;;;;;;31.20;12.77;;;-6.70;99.90;;;;;;4939393;29;20747;-88
2024/01/17 04:25:55;;;;;;;20.17;10.50;;;-6.70;99.90;;;;;;4939427;29;20027;-89
2024/01/17 04:28:21;;;;;;;23.70;12.85;;;-6.60;99.90;;;;;;4937910;29;20465;-88
2024/01/17 04:30:47;;;;;;;26.75;12.85;;;-6.50;99.90;;;;;;4939311;29;20039;-88
2024/01/17 04:33:13;;;;;;;23.00;11.40;;;-6.40;99.90;;;;;;4934034;29;20472;-89
2024/01/17 04:35:38;;;;;;;25.05;11.30;;;-6.40;99.90;;;;;;4960278;28;20038;-89
2024/01/17 04:38:04;;;;;;;21.90;10.98;;;-6.40;99.90;;;;;;4939777;28;20496;-88
2024/01/17 04:40:30;;;;;;;21.17;11.23;;;-6.30;99.90;;;;;;4954544;28;20046;-88
2024/01/17 04:42:56;;;;;;;22.88;11.73;;;-6.30;99.90;;;;;;4925133;29;20042;-88
2024/01/17 04:45:22;;;;;;;22.65;11.20;;;-6.20;99.90;;;;;;4928761;29;20031;-89
2024/01/17 04:47:49;;;;;;;24.15;11.57;;;-6.20;99.90;;;;;;4932648;28;20636;-89
2024/01/17 04:50:15;;;;;;;25.67;11.65;;;-6.20;99.90;;;;;;4948881;28;20129;-89
2024/01/17 04:52:41;;;;;;;20.08;10.63;;;-6.20;99.90;;;;;;4950687;29;20031;-89
2024/01/17 04:55:08;;;;;;;22.52;11.55;;;-6.20;99.90;;;;;;4967010;28;20037;-90
2024/01/17 04:57:35;;;;;;;24.58;12.55;;;-6.20;99.90;;;;;;4945186;28;20062;-89
2024/01/17 05:00:03;;;;;;;21.98;10.70;;;-6.30;99.90;;;;;;4928933;29;20027;-89
2024/01/17 05:02:29;;;;;;;24.58;11.95;;;-6.30;99.90;;;;;;4944251;28;20176;-89
2024/01/17 05:04:55;;;;;;;21.33;11.18;;;-6.20;99.90;;;;;;4963149;28;20071;-88
2024/01/17 05:07:21;;;;;;;25.58;12.02;;;-6.20;99.90;;;;;;4954837;28;20038;-90
2024/01/17 05:09:47;;;;;;;23.35;10.73;;;-6.20;99.90;;;;;;4935779;29;20028;-89
2024/01/17 05:12:15;;;;;;;23.88;11.38;;;-6.20;99.90;;;;;;4956029;29;20042;-90
2024/01/17 05:14:44;;;;;;;21.98;11.60;;;-6.20;99.90;;;;;;4954501;28;20031;-90
2024/01/17 05:17:24;;;;;;;27.08;11.77;;;-6.10;99.90;;;;;;4927952;29;20038;-89
2024/01/17 05:19:50;;;;;;;27.83;12.43;;;-6.10;99.90;;;;;;4960229;28;20038;-91
2024/01/17 05:22:16;;;;;;;21.83;11.35;;;-6.10;99.90;;;;;;4938345;29;20027;-89
2024/01/17 05:24:42;;;;;;;24.90;10.93;;;-6.10;99.90;;;;;;4927790;29;20035;-89
2024/01/17 05:27:08;;;;;;;30.70;11.95;;;-6.00;99.90;;;;;;4927723;29;20031;-89
2024/01/17 05:29:40;;;;;;;24.13;11.32;;;-6.10;99.90;;;;;;4944096;28;20046;-91
2024/01/17 05:32:06;;;;;;;22.25;11.35;;;-6.00;99.90;;;;;;4943480;29;20712;-89
2024/01/17 05:34:32;;;;;;;22.15;10.85;;;-6.00;99.90;;;;;;4943209;28;20035;-88
2024/01/17 05:36:57;;;;;;;23.83;11.50;;;-5.90;99.90;;;;;;4928322;29;20459;-89
2024/01/17 05:39:23;;;;;;;23.67;10.95;;;-6.00;99.90;;;;;;4943176;29;20403;-91
2024/01/17 05:41:52;;;;;;;21.90;10.93;;;-5.90;99.90;;;;;;4927118;29;20027;-91
2024/01/17 05:44:18;;;;;;;21.88;11.10;;;-5.90;99.90;;;;;;4928011;28;20130;-92
2024/01/17 05:46:44;;;;;;;22.52;10.70;;;-6.00;99.90;;;;;;4928448;29;20121;-92
2024/01/17 05:49:09;;;;;;;21.75;10.70;;;-5.90;99.90;;;;;;4932855;29;20411;-92
2024/01/17 05:51:35;;;;;;;22.88;10.68;;;-5.90;99.90;;;;;;4942680;29;20031;-91
2024/01/17 05:54:01;;;;;;;26.05;9.88;;;-5.90;99.90;;;;;;4953444;28;20062;-90
2024/01/17 05:56:27;;;;;;;22.90;10.88;;;-5.90;99.90;;;;;;4951035;28;20042;-89
2024/01/17 05:58:53;;;;;;;21.77;10.52;;;-5.80;99.90;;;;;;4956763;28;20038;-89
2024/01/17 06:01:21;;;;;;;19.42;10.52;;;-5.80;99.90;;;;;;4924705;29;20509;-90
2024/01/17 06:03:47;;;;;;;21.17;10.02;;;-5.80;99.90;;;;;;4946193;29;20034;-89
2024/01/17 06:06:12;;;;;;;24.70;10.60;;;-5.80;99.90;;;;;;4945095;29;20031;-90
2024/01/17 06:08:38;;;;;;;18.42;9.98;;;-5.80;99.90;;;;;;4929451;29;20484;-89
2024/01/17 06:11:04;;;;;;;20.85;10.55;;;-5.80;99.90;;;;;;4942393;29;20035;-89
2024/01/17 06:13:30;;;;;;;19.85;10.57;;;-5.70;99.90;;;;;;4931310;29;20098;-90
2024/01/17 06:15:57;;;;;;;19.08;10.43;;;-5.70;99.90;;;;;;4953123;28;20043;-90
2024/01/17 06:18:23;;;;;;;26.95;10.95;;;-5.70;99.90;;;;;;4942872;29;20509;-91
2024/01/17 06:20:49;;;;;;;22.73;10.75;;;-5.70;99.90;;;;;;4941967;28;20039;-90
2024/01/17 06:23:15;;;;;;;25.45;10.90;;;-5.70;99.90;;;;;;4933610;29;20027;-89
2024/01/17 06:25:41;;;;;;;21.55;9.68;;;-5.70;99.90;;;;;;4927967;29;20514;-89
2024/01/17 06:28:07;;;;;;;22.42;10.60;;;-5.70;99.90;;;;;;4941541;29;20055;-89
2024/01/17 06:30:33;;;;;;;18.63;11.00;;;-5.60;99.90;;;;;;4947076;29;20381;-89
2024/01/17 06:33:00;;;;;;;21.23;11.80;;;-5.60;99.90;;;;;;4921838;29;20535;-90
2024/01/17 06:35:26;;;;;;;21.70;11.70;;;-5.60;99.90;;;;;;4945190;29;20587;-90
2024/01/17 06:37:51;;;;;;;22.92;11.45;;;-5.50;99.90;;;;;;4940479;29;20035;-89
2024/01/17 06:40:17;;;;;;;21.63;11.07;;;-5.40;99.90;;;;;;4940645;28;20024;-89
2024/01/17 06:42:43;;;;;;;22.20;10.95;;;-5.50;99.90;;;;;;4948579;28;20078;-89
2024/01/17 06:45:10;;;;;;;24.70;11.00;;;-5.40;99.90;;;;;;4923548;29;20622;-89
2024/01/17 06:47:36;;;;;;;20.77;10.50;;;-5.40;99.90;;;;;;4947143;28;20031;-89
2024/01/17 06:50:02;;;;;;;20.35;10.25;;;-5.30;99.90;;;;;;4921404;29;20055;-89
2024/01/17 06:52:28;;;;;;;21.55;12.13;;;-5.30;99.90;;;;;;4940159;29;20118;-90
2024/01/17 06:54:54;;;;;;;22.75;11.52;;;-5.30;99.90;;;;;;4943840;28;20118;-88
2024/01/17 06:57:20;;;;;;;27.88;12.05;;;-5.30;99.90;;;;;;4941512;29;20031;-89
2024/01/17 06:59:46;;;;;;;21.60;12.00;;;-5.20;99.90;;;;;;4941201;29;20043;-89
2024/01/17 07:02:12;;;;;;;20.92;10.63;;;-5.20;99.90;;;;;;4946742;29;20114;-89
2024/01/17 07:04:40;;;;;;;22.63;10.77;;;-5.10;99.90;;;;;;4926513;29;20063;-89
2024/01/17 07:07:06;;;;;;;19.45;10.70;;;-5.10;99.90;;;;;;4939083;29;20119;-89
2024/01/17 07:09:35;;;;;;;21.95;11.35;;;-5.10;99.90;;;;;;4939370;29;20059;-91
2024/01/17 07:12:01;;;;;;;19.92;10.98;;;-5.10;99.90;;;;;;4939271;29;20114;-88
2024/01/17 07:14:28;;;;;;;21.10;10.18;;;-5.10;99.90;;;;;;4922788;28;20043;-87
2024/01/17 07:16:54;;;;;;;20.70;10.75;;;-5.00;99.90;;;;;;4923854;29;20491;-89
2024/01/17 07:19:20;;;;;;;22.50;11.77;;;-5.10;99.90;;;;;;4919325;29;20038;-89
2024/01/17 07:21:46;;;;;;;21.25;10.32;;;-5.00;99.90;;;;;;4949996;28;20031;-88
2024/01/17 07:24:12;;;;;;;22.30;9.82;;;-5.00;99.90;;;;;;4924145;29;20031;-87
2024/01/17 07:26:38;;;;;;;21.95;10.25;;;-4.90;99.90;;;;;;4920412;28;20032;-89
2024/01/17 07:29:04;;;;;;;20.50;10.52;;;-5.00;99.90;;;;;;4945579;28;20039;-88
2024/01/17 07:31:31;;;;;;;17.85;10.15;;;-4.90;99.90;;;;;;4930519;29;20062;-88
2024/01/17 07:33:57;;;;;;;19.85;10.50;;;-4.80;99.90;;;;;;4931805;29;20035;-89
2024/01/17 07:36:25;;;;;;;19.08;10.73;;;-4.90;99.90;;;;;;4955003;28;20514;-88
2024/01/17 07:38:51;;;;;;;18.65;10.10;;;-4.80;99.90;;;;;;4940556;28;20026;-87
2024/01/17 07:41:17;;;;;;;19.50;9.68;;;-4.80;99.90;;;;;;4938444;29;20039;-91
2024/01/17 07:43:43;;;;;;;17.75;9.75;;;-4.80;99.90;;;;;;4954400;28;20392;-89
2024/01/17 07:46:12;;;;;;;19.95;10.35;;;-4.80;99.90;;;;;;4938539;28;20042;-87
2024/01/17 07:48:38;;;;;;;18.35;9.90;;;-4.80;99.90;;;;;;4953625;28;20039;-88
2024/01/17 07:51:05;;;;;;;17.73;9.52;;;-4.70;99.90;;;;;;4944683;29;20023;-88
2024/01/17 07:53:31;;;;;;;18.58;9.43;;;-4.70;99.90;;;;;;4940580;28;20067;-89
2024/01/17 07:55:58;;;;;;;19.40;10.30;;;-4.70;99.90;;;;;;4933190;29;20118;-88
2024/01/17 07:58:24;;;;;;;18.27;9.63;;;-4.60;99.90;;;;;;4939545;29;20035;-88
2024/01/17 08:00:50;;;;;;;19.98;10.23;;;-4.60;99.90;;;;;;4935633;28;20632;-89
2024/01/17 08:03:16;;;;;;;18.80;9.25;;;-4.60;99.90;;;;;;4940197;28;20027;-87
2024/01/17 08:05:42;;;;;;;19.92;9.70;;;-4.50;99.90;;;;;;4943789;28;20499;-89
2024/01/17 08:08:09;;;;;;;18.83;10.68;;;-4.50;99.90;;;;;;4955007;28;20058;-87
2024/01/17 08:10:36;;;;;;;24.20;11.07;;;-4.40;99.90;;;;;;4949514;28;20141;-90
2024/01/17 08:13:02;;;;;;;17.50;9.90;;;-4.30;99.90;;;;;;4922417;29;20436;-88
2024/01/17 08:15:27;;;;;;;17.33;9.60;;;-4.30;99.90;;;;;;4925077;29;20032;-91
2024/01/17 08:17:53;;;;;;;23.02;9.55;;;-4.20;99.90;;;;;;4938146;28;20035;-88
2024/01/17 08:20:19;;;;;;;21.05;9.68;;;-4.20;99.90;;;;;;4939347;29;20031;-89
2024/01/17 08:23:26;;;;;;;18.33;9.70;;;-4.10;99.90;;;;;;4945690;29;20030;-91
2024/01/17 08:26:15;;;;;;;;;;;-4.10;99.90;;;;;;4948047;28;20110;-87
2024/01/17 08:28:46;;;;;;;17.38;9.50;;;-4.00;99.90;;;;;;4944874;28;20008;-90
2024/01/17 08:31:15;;;;;;;21.60;10.57;;;-4.00;99.90;;;;;;4943769;29;20039;-86
2024/01/17 08:34:00;;;;;;;;;;;;;;;;;;;;;
2024/01/17 08:36:30;;;;;;;20.55;9.90;;;-4.00;99.90;;;;;;4951524;28;20035;-88
2024/01/17 08:38:57;;;;;;;23.27;10.63;;;-3.90;99.90;;;;;;4947570;28;20028;-89
2024/01/17 08:41:23;;;;;;;24.60;10.50;;;-3.90;99.90;;;;;;4954396;28;20508;-89
2024/01/17 08:43:49;;;;;;;19.88;10.13;;;-3.90;99.90;;;;;;4916268;28;20034;-88
2024/01/17 08:46:15;;;;;;;19.35;10.25;;;-3.90;99.90;;;;;;4956541;28;20023;-87
2024/01/17 08:48:42;;;;;;;18.52;9.93;;;-3.80;99.90;;;;;;4956389;28;20611;-90
2024/01/17 08:51:08;;;;;;;17.98;8.82;;;-3.70;99.90;;;;;;4926375;28;20033;-88
2024/01/17 08:53:37;;;;;;;17.50;8.90;;;-3.70;99.90;;;;;;4926999;28;20038;-89
2024/01/17 08:56:05;;;;;;;17.83;9.52;;;-3.70;99.90;;;;;;4933484;29;20035;-89
2024/01/17 08:58:34;;;;;;;18.80;10.68;;;-3.70;99.90;;;;;;4945827;28;20130;-89
2024/01/17 09:01:01;;;;;;;21.50;10.60;;;-3.70;99.90;;;;;;4957766;28;20543;-87
2024/01/17 09:03:32;;;;;;;16.60;9.30;;;-3.60;99.90;;;;;;4940010;28;20031;-87
2024/01/17 09:06:00;;;;;;;21.52;9.90;;;-3.60;99.90;;;;;;4936706;28;20034;-90
2024/01/17 09:08:26;;;;;;;18.15;9.07;;;-3.50;99.90;;;;;;4933916;28;20027;-88
2024/01/17 09:10:52;;;;;;;17.80;9.55;;;-3.40;99.90;;;;;;4919204;29;20042;-89
2024/01/17 09:13:18;;;;;;;21.42;9.40;;;-3.30;99.90;;;;;;4918416;29;20038;-90
2024/01/17 09:15:45;;;;;;;19.92;9.57;;;-3.30;99.90;;;;;;4933458;28;20035;-89
2024/01/17 09:18:11;;;;;;;18.17;9.85;;;-3.30;99.90;;;;;;4932799;29;20032;-89
2024/01/17 09:20:36;;;;;;;15.85;9.07;;;-3.20;99.90;;;;;;4946715;28;20374;-88
2024/01/17 09:23:02;;;;;;;19.63;9.68;;;-3.20;99.90;;;;;;4923670;28;20376;-88
2024/01/17 09:25:28;;;;;;;18.27;9.65;;;-3.20;99.90;;;;;;4934996;28;20768;-90
2024/01/17 09:27:54;;;;;;;22.70;9.60;;;-3.20;99.90;;;;;;4933238;28;20130;-90
2024/01/17 09:30:20;;;;;;;17.02;8.80;;;-3.20;99.90;;;;;;4945491;28;20117;-90
2024/01/17 09:32:47;;;;;;;17.83;9.18;;;-3.20;99.90;;;;;;4945378;28;20138;-89
2024/01/17 09:35:16;;;;;;;16.73;9.40;;;-3.20;99.90;;;;;;4944984;28;20033;-87
2024/01/17 09:37:42;;;;;;;20.73;9.63;;;-3.20;99.90;;;;;;4940898;28;20055;-90
2024/01/17 09:40:10;;;;;;;21.23;11.52;;;-3.20;99.90;;;;;;4939971;29;20055;-90
2024/01/17 09:42:36;;;;;;;17.20;10.30;;;-3.20;99.90;;;;;;4945263;28;20035;-91
2024/01/17 09:45:03;;;;;;;17.20;10.27;;;-3.20;99.90;;;;;;4948282;28;20029;-90
2024/01/17 09:47:33;;;;;;;20.65;10.18;;;-3.20;99.90;;;;;;4944166;28;20053;-92
2024/01/17 09:49:59;;;;;;;23.08;10.90;;;-3.10;99.90;;;;;;4926217;29;20713;-90
2024/01/17 09:52:25;;;;;;;17.65;10.48;;;-3.00;99.90;;;;;;4959840;28;20027;-89
2024/01/17 09:54:52;;;;;;;16.17;9.93;;;-3.00;99.90;;;;;;4935061;29;20110;-92
2024/01/17 09:57:24;;;;;;;15.88;9.82;;;-3.10;99.90;;;;;;4962694;29;20105;-92
2024/01/17 09:59:57;;;;;;;19.88;9.60;;;-3.00;99.90;;;;;;4952602;28;20111;-89
2024/01/17 10:02:27;;;;;;;17.25;10.23;;;-3.00;99.90;;;;;;4938194;28;20085;-91
2024/01/17 10:04:57;;;;;;;19.48;10.48;;;-3.00;99.90;;;;;;4932295;28;20614;-90
2024/01/17 10:07:23;;;;;;;20.27;9.98;;;-3.00;99.90;;;;;;4927856;29;20031;-90
2024/01/17 10:09:49;;;;;;;17.48;9.57;;;-2.90;99.90;;;;;;4956578;28;20094;-89
2024/01/17 10:12:18;;;;;;;23.63;11.27;;;-2.90;99.90;;;;;;4924565;29;20090;-91
2024/01/17 10:14:44;;;;;;;18.73;10.75;;;-2.90;99.90;;;;;;4939682;29;20059;-91
2024/01/17 10:17:10;;;;;;;18.20;10.23;;;-2.90;99.90;;;;;;4924059;29;20070;-88
2024/01/17 10:19:36;;;;;;;17.83;10.30;;;-2.90;99.90;;;;;;4947662;28;20023;-88
2024/01/17 10:22:08;;;;;;;19.15;11.15;;;-2.80;99.90;;;;;;4940101;28;20561;-91
2024/01/17 10:24:42;;;;;;;18.00;10.38;;;-2.80;99.90;;;;;;4938734;28;20050;-89
2024/01/17 10:27:07;;;;;;;23.63;11.98;;;-2.70;99.90;;;;;;4925294;28;20035;-90
2024/01/17 10:29:39;;;;;;;19.58;10.77;;;-2.60;99.90;;;;;;4935641;29;20089;-87
2024/01/17 10:32:05;;;;;;;20.52;10.80;;;-2.60;99.90;;;;;;4937903;29;20030;-89
2024/01/17 10:34:31;;;;;;;22.10;11.63;;;-2.60;99.90;;;;;;4943505;28;20047;-87
2024/01/17 10:36:58;;;;;;;20.15;11.73;;;-2.60;99.90;;;;;;4938033;29;20038;-88
2024/01/17 10:39:26;;;;;;;21.13;11.48;;;-2.50;99.90;;;;;;4937060;28;20031;-89
2024/01/17 10:41:54;;;;;;;21.65;11.25;;;-2.50;99.90;;;;;;4921798;29;20038;-89
2024/01/17 10:44:25;;;;;;;20.58;12.02;;;-2.40;99.90;;;;;;4952879;28;20028;-89
2024/01/17 10:46:51;;;;;;;18.90;11.80;;;-2.30;99.90;;;;;;4941714;29;20480;-88
2024/01/17 10:49:18;;;;;;;23.88;12.32;;;-2.30;99.90;;;;;;4941779;28;20035;-88
2024/01/17 10:52:07;;;;;;;22.42;12.93;;;-2.20;99.90;;;;;;4961328;28;20027;-88
2024/01/17 10:54:58;;;;;;;26.98;15.13;;;-2.10;99.90;;;;;;4954879;28;20039;-89
2024/01/17 10:57:26;;;;;;;22.95;12.05;;;-2.10;99.90;;;;;;4941670;29;20393;-88
2024/01/17 10:59:52;;;;;;;20.88;12.63;;;-2.10;99.90;;;;;;4932056;29;20054;-89
2024/01/17 11:02:19;;;;;;;22.27;11.80;;;-2.00;99.90;;;;;;4940711;28;20114;-89
2024/01/17 11:04:47;;;;;;;26.80;15.57;;;-1.90;99.90;;;;;;4943700;29;20035;-87
2024/01/17 11:07:16;;;;;;;21.60;12.90;;;-1.90;99.90;;;;;;4955244;28;20483;-86
2024/01/17 11:09:45;;;;;;;24.35;12.93;;;-1.90;99.90;;;;;;4929392;29;20480;-87
2024/01/17 11:12:16;;;;;;;23.92;13.57;;;-1.90;99.90;;;;;;4930321;29;20065;-90
2024/01/17 11:15:01;;;;;;;23.67;13.20;;;-1.80;99.90;;;;;;4949303;28;20043;-90
2024/01/17 11:17:31;;;;;;;21.80;13.20;;;-1.80;99.90;;;;;;4952628;28;20063;-90
2024/01/17 11:19:57;;;;;;;25.73;13.38;;;-1.80;99.90;;;;;;4925569;29;20035;-90
2024/01/17 11:22:23;;;;;;;26.67;14.00;;;-1.70;99.90;;;;;;4943905;28;20026;-89
2024/01/17 11:25:07;;;;;;;24.27;14.05;;;-1.70;99.90;;;;;;4924029;28;20407;-90
2024/01/17 11:27:41;;;;;;;25.63;13.18;;;-1.70;99.90;;;;;;4937288;28;20111;-90
2024/01/17 11:30:22;;;;;;;25.42;12.93;;;-1.60;99.90;;;;;;4924171;29;20035;-90
2024/01/17 11:33:10;;;;;;;18.15;12.02;;;-1.60;99.90;;;;;;4951709;28;20054;-89
2024/01/17 11:35:54;;;;;;;23.42;13.63;;;-1.50;99.90;;;;;;4921093;28;20475;-90
2024/01/17 11:38:23;;;;;;;22.48;13.77;;;-1.50;99.90;;;;;;4942909;28;20138;-90
2024/01/17 11:41:06;;;;;;;26.42;13.30;;;-1.40;99.90;;;;;;4941343;28;20070;-88
2024/01/17 11:43:36;;;;;;;21.67;12.85;;;-1.30;99.90;;;;;;4952618;28;20050;-90
2024/01/17 11:46:08;;;;;;;21.60;13.15;;;-1.30;99.90;;;;;;4940906;29;20060;-89
2024/01/17 11:48:39;;;;;;;25.55;12.68;;;-1.20;99.90;;;;;;4953732;28;20042;-89
2024/01/17 11:51:14;;;;;;;22.58;13.25;;;-1.10;99.90;;;;;;4922155;29;20032;-90
2024/01/17 11:53:50;;;;;;;23.45;13.32;;;-1.10;99.90;;;;;;4949755;28;20090;-88
2024/01/17 11:56:20;;;;;;;24.63;13.20;;;-1.10;99.90;;;;;;4926278;29;20031;-89
2024/01/17 11:58:49;;;;;;;22.10;12.13;;;-1.10;99.90;;;;;;4922966;29;20031;-87
2024/01/17 12:01:22;;;;;;;22.65;12.45;;;-1.10;99.90;;;;;;4939389;28;20034;-85
2024/01/17 12:03:48;;;;;;;18.80;11.77;;;-1.10;99.90;;;;;;4944784;29;20507;-88
2024/01/17 12:06:15;;;;;;;20.67;12.05;;;-1.10;99.90;;;;;;4936458;29;20031;-88
2024/01/17 12:08:41;;;;;;;62.13;27.27;;;-1.20;99.90;;;;;;4936479;28;20041;-89
2024/01/17 12:11:08;;;;;;;22.67;13.07;;;-1.10;99.90;;;;;;4940660;28;20024;-88
2024/01/17 12:13:38;;;;;;;19.77;12.73;;;-1.10;99.90;;;;;;4947809;28;20432;-87
2024/01/17 12:16:05;;;;;;;18.92;11.60;;;-1.10;99.90;;;;;;4933370;28;20372;-87
2024/01/17 12:18:32;;;;;;;22.02;11.85;;;-1.10;99.90;;;;;;4926425;28;20043;-89
2024/01/17 12:21:02;;;;;;;22.75;12.77;;;-1.00;99.90;;;;;;4940681;28;20034;-90
2024/01/17 12:23:33;;;;;;;21.90;12.40;;;-0.90;99.90;;;;;;4923860;29;20027;-88
2024/01/17 12:26:00;;;;;;;21.65;12.93;;;-0.90;99.90;;;;;;4936985;29;20036;-88
2024/01/17 12:28:28;;;;;;;21.55;12.10;;;-0.80;99.90;;;;;;4957881;28;20034;-89
2024/01/17 12:31:00;;;;;;;21.15;12.60;;;-0.80;99.90;;;;;;4930925;28;20031;-87
2024/01/17 12:33:31;;;;;;;21.15;13.23;;;-0.90;99.90;;;;;;4946392;28;20110;-88